createdAt,value
2022-11-18T00:01:19.729Z,150.13
2022-11-18T00:03:50.441Z,253.20
2022-11-18T00:06:20.191Z,109.37
2022-11-18T00:08:48.778Z,120.60
2022-11-18T00:11:38.576Z,170.17
2022-11-18T00:14:22.457Z,136.30
2022-11-18T00:16:53.350Z,264.00
2022-11-18T00:19:24.866Z,90.17
2022-11-18T00:21:53.055Z,137.17
2022-11-18T00:24:21.295Z,105.33
2022-11-18T00:26:49.687Z,94.77
2022-11-18T00:29:19.103Z,192.87
2022-11-18T00:31:47.546Z,89.33
2022-11-18T00:34:17.827Z,72.40
2022-11-18T00:36:48.565Z,62.20
2022-11-18T00:39:18.805Z,88.10
2022-11-18T00:42:05.142Z,90.93
2022-11-18T00:44:33.336Z,118.27
2022-11-18T00:47:01.513Z,87.97
2022-11-18T00:49:29.625Z,83.63
2022-11-18T00:51:59.135Z,78.83
2022-11-18T00:54:27.242Z,72.17
2022-11-18T00:56:55.421Z,110.63
2022-11-18T00:59:23.563Z,95.30
2022-11-18T01:01:51.789Z,116.17
2022-11-18T01:04:20.342Z,135.53
2022-11-18T01:06:48.444Z,146.17
2022-11-18T01:09:19.200Z,269.73
2022-11-18T01:12:05.075Z,126.90
2022-11-18T01:14:33.111Z,117.33
2022-11-18T01:17:01.214Z,106.40
2022-11-18T01:19:29.325Z,96.97
2022-11-18T01:22:03.056Z,103.73
2022-11-18T01:24:33.685Z,99.47
2022-11-18T01:27:03.194Z,127.63
2022-11-18T01:29:31.341Z,159.47
2022-11-18T01:32:23.288Z,161.07
2022-11-18T01:34:47.656Z,141.43
2022-11-18T01:37:15.836Z,207.87
2022-11-18T01:39:45.277Z,153.77
2022-11-18T01:42:19.139Z,158.00
2022-11-18T01:45:22.762Z,131.77
2022-11-18T01:47:56.976Z,171.83
2022-11-18T01:50:26.789Z,94.67
2022-11-18T01:52:57.428Z,159.73
2022-11-18T01:55:30.344Z,122.37
2022-11-18T02:02:12.019Z,146.53
2022-11-18T02:04:42.075Z,188.30
2022-11-18T02:07:11.630Z,136.93
2022-11-18T02:09:39.913Z,174.83
2022-11-18T02:12:10.128Z,143.77
2022-11-18T02:14:41.643Z,116.27
2022-11-18T02:17:18.703Z,143.73
2022-11-18T02:20:08.463Z,146.57
2022-11-18T02:22:49.980Z,117.43
2022-11-18T02:25:30.103Z,67.70
2022-11-18T02:28:24.280Z,136.53
2022-11-18T02:31:00.425Z,127.97
2022-11-18T02:33:35.121Z,88.73
2022-11-18T02:36:09.849Z,73.07
2022-11-18T02:38:44.520Z,72.87
2022-11-18T02:41:17.659Z,79.97
2022-11-18T02:43:49.006Z,89.43
2022-11-18T02:46:25.223Z,68.67
2022-11-18T02:48:54.961Z,88.83
2022-11-18T02:51:26.587Z,82.87
2022-11-18T02:53:57.942Z,55.77
2022-11-18T02:56:28.700Z,83.57
2022-11-18T02:58:56.889Z,134.27
2022-11-18T03:01:29.766Z,228.33
2022-11-18T03:03:58.134Z,126.23
2022-11-18T03:06:33.348Z,194.80
2022-11-18T03:09:10.461Z,144.10
2022-11-18T03:11:44.958Z,242.83
2022-11-18T03:14:24.897Z,255.30
2022-11-18T03:17:01.492Z,328.17
2022-11-18T03:19:42.349Z,234.40
2022-11-18T03:22:15.523Z,203.80
2022-11-18T03:24:50.571Z,253.47
2022-11-18T03:27:25.286Z,203.63
2022-11-18T03:30:00.241Z,127.10
2022-11-18T03:32:33.099Z,300.13
2022-11-18T03:35:05.526Z,116.33
2022-11-18T03:37:36.111Z,126.20
2022-11-18T03:40:12.768Z,158.27
2022-11-18T03:42:45.154Z,248.03
2022-11-18T03:45:34.610Z,236.90
2022-11-18T03:48:09.415Z,425.33
2022-11-18T03:50:41.718Z,314.37
2022-11-18T03:53:12.199Z,324.63
2022-11-18T03:55:43.055Z,133.67
2022-11-18T03:58:17.004Z,378.27
2022-11-18T04:00:49.604Z,357.70
2022-11-18T04:03:19.025Z,369.13
2022-11-18T04:05:53.290Z,253.77
2022-11-18T04:08:26.552Z,121.73
2022-11-18T04:11:00.835Z,203.00
2022-11-18T04:13:32.516Z,197.17
2022-11-18T04:16:01.146Z,405.07
2022-11-18T04:18:30.565Z,147.70
2022-11-18T04:20:58.572Z,148.20
2022-11-18T04:23:26.757Z,86.80
2022-11-18T04:25:54.820Z,152.17
2022-11-18T04:28:22.854Z,94.13
2022-11-18T04:30:51.030Z,115.03
2022-11-18T04:33:19.086Z,92.30
2022-11-18T04:35:49.383Z,141.93
2022-11-18T04:38:21.902Z,81.33
2022-11-18T04:40:50.323Z,75.97
2022-11-18T04:43:18.318Z,81.47
2022-11-18T04:45:46.516Z,55.93
2022-11-18T04:48:16.154Z,309.80
2022-11-18T04:50:44.263Z,97.70
2022-11-18T04:53:13.679Z,81.60
2022-11-18T04:55:41.812Z,73.63
2022-11-18T04:58:09.921Z,71.00
2022-11-18T05:00:37.982Z,169.23
2022-11-18T05:03:06.756Z,133.50
2022-11-18T05:05:36.203Z,92.17
2022-11-18T05:08:04.306Z,74.00
2022-11-18T05:10:33.980Z,65.93
2022-11-18T05:13:01.244Z,107.80
2022-11-18T05:15:29.498Z,93.30
2022-11-18T05:17:57.609Z,108.73
2022-11-18T05:20:25.689Z,117.00
2022-11-18T05:22:53.699Z,75.20
2022-11-18T05:25:21.796Z,121.07
2022-11-18T05:27:51.436Z,71.80
2022-11-18T05:30:19.710Z,223.37
2022-11-18T05:32:47.968Z,187.03
2022-11-18T05:35:16.145Z,141.57
2022-11-18T05:37:44.620Z,95.50
2022-11-18T05:40:14.168Z,129.10
2022-11-18T05:43:01.251Z,102.73
2022-11-18T05:45:31.234Z,92.47
2022-11-18T05:48:04.925Z,71.90
2022-11-18T05:50:33.974Z,112.73
2022-11-18T05:53:02.611Z,276.83
2022-11-18T05:55:36.668Z,108.80
2022-11-18T05:58:04.786Z,147.27
2022-11-18T06:00:34.946Z,114.40
2022-11-18T06:03:05.049Z,190.60
2022-11-18T06:05:33.256Z,106.80
2022-11-18T06:08:01.258Z,148.80
2022-11-18T06:10:31.516Z,115.13
2022-11-18T06:13:05.145Z,194.33
2022-11-18T06:15:38.125Z,116.57
2022-11-18T06:18:10.072Z,112.57
2022-11-18T06:20:41.755Z,86.97
2022-11-18T06:23:10.308Z,97.33
2022-11-18T06:25:41.164Z,102.23
2022-11-18T06:28:11.922Z,81.63
2022-11-18T06:30:41.552Z,71.80
2022-11-18T06:33:10.147Z,56.07
2022-11-18T06:35:38.921Z,94.80
2022-11-18T06:38:07.342Z,70.33
2022-11-18T06:40:35.357Z,205.40
2022-11-18T06:43:24.719Z,111.43
2022-11-18T06:46:26.667Z,287.17
2022-11-18T06:48:54.974Z,144.47
2022-11-18T06:51:23.611Z,118.77
2022-11-18T06:53:52.040Z,100.20
2022-11-18T06:56:21.600Z,127.17
2022-11-18T06:58:54.168Z,139.40
2022-11-18T07:01:25.485Z,86.23
2022-11-18T07:03:54.502Z,106.53
2022-11-18T07:06:26.414Z,75.77
2022-11-18T07:08:54.946Z,102.60
2022-11-18T07:11:25.797Z,96.67
2022-11-18T07:13:54.228Z,116.43
2022-11-18T07:16:25.672Z,68.77
2022-11-18T07:18:55.805Z,72.40
2022-11-18T07:21:25.487Z,69.93
2022-11-18T07:23:53.826Z,72.07
2022-11-18T07:26:22.295Z,131.17
2022-11-18T07:28:50.466Z,165.70
2022-11-18T07:31:21.188Z,78.80
2022-11-18T07:33:53.707Z,83.77
2022-11-18T07:36:23.880Z,80.00
2022-11-18T07:38:52.627Z,76.07
2022-11-18T07:41:24.088Z,65.77
2022-11-18T07:43:59.013Z,68.63
2022-11-18T07:46:30.318Z,71.83
2022-11-18T07:49:01.570Z,71.50
2022-11-18T07:51:31.534Z,80.27
2022-11-18T07:53:59.594Z,85.27
2022-11-18T07:56:28.187Z,105.93
2022-11-18T07:58:57.073Z,115.53
2022-11-18T08:10:48.786Z,53.13
2022-11-18T08:13:18.134Z,50.27
2022-11-18T08:15:46.122Z,59.23
2022-11-18T08:18:14.228Z,58.23
2022-11-18T08:20:42.262Z,83.20
2022-11-18T08:23:10.277Z,76.83
2022-11-18T08:25:38.743Z,49.67
2022-11-18T08:28:08.464Z,65.13
2022-11-18T08:30:37.239Z,101.87
2022-11-18T08:33:05.466Z,62.37
2022-11-18T08:35:34.408Z,62.47
2022-11-18T08:38:02.878Z,59.27
2022-11-18T08:40:30.963Z,71.73
2022-11-18T08:42:59.052Z,93.27
2022-11-18T08:45:28.555Z,55.00
2022-11-18T08:47:56.631Z,61.13
2022-11-18T08:50:24.765Z,66.00
2022-11-18T08:52:52.842Z,68.40
2022-11-18T08:55:20.849Z,69.77
2022-11-18T08:57:49.725Z,76.70
2022-11-18T09:00:18.813Z,78.33
2022-11-18T09:02:48.424Z,79.07
2022-11-18T09:05:16.671Z,78.03
2022-11-18T09:07:44.870Z,86.83
2022-11-18T09:10:12.912Z,86.93
2022-11-18T09:12:40.964Z,85.70
2022-11-18T09:17:59.999Z,77.53
2022-11-18T09:20:28.473Z,78.00
2022-11-18T09:22:56.618Z,74.93
2022-11-18T09:25:24.720Z,70.37
2022-11-18T09:27:53.146Z,68.30
2022-11-18T09:30:21.487Z,71.33
2022-11-18T09:32:50.705Z,66.47
2022-11-18T09:35:20.235Z,63.07
2022-11-18T09:37:48.311Z,74.07
2022-11-18T09:40:19.156Z,64.87
2022-11-18T09:42:59.048Z,73.60
2022-11-18T09:45:33.807Z,75.67
2022-11-18T09:48:18.006Z,74.27
2022-11-18T09:50:50.063Z,76.07
2022-11-18T09:53:21.524Z,74.53
2022-11-18T09:55:51.522Z,76.23
2022-11-18T09:58:34.323Z,78.20
2022-11-18T10:01:03.129Z,73.03
2022-11-18T10:03:32.837Z,71.23
2022-11-18T10:06:16.952Z,71.40
2022-11-18T10:09:08.245Z,55.53
2022-11-18T10:11:45.185Z,63.90
2022-11-18T10:14:28.210Z,62.33
2022-11-18T10:17:11.883Z,61.47
2022-11-18T10:19:44.276Z,63.43
2022-11-18T10:22:24.830Z,64.70
2022-11-18T10:24:54.717Z,68.07
2022-11-18T10:27:24.650Z,62.57
2022-11-18T10:29:58.563Z,77.90
2022-11-18T10:32:26.855Z,68.17
2022-11-18T10:34:57.408Z,76.57
2022-11-18T10:40:27.562Z,80.70
2022-11-18T10:42:56.124Z,71.17
2022-11-18T10:45:28.204Z,81.20
2022-11-18T10:48:08.241Z,83.53
2022-11-18T10:50:37.683Z,82.27
2022-11-18T10:53:27.346Z,92.43
2022-11-18T10:56:00.287Z,102.53
2022-11-18T10:58:31.982Z,106.17
2022-11-18T11:01:07.528Z,111.20
2022-11-18T11:03:39.009Z,114.10
2022-11-18T11:06:38.139Z,125.00
2022-11-18T11:09:10.943Z,114.03
2022-11-18T11:11:43.401Z,117.77
2022-11-18T11:14:28.411Z,122.20
2022-11-18T11:17:05.784Z,130.73
2022-11-18T11:19:49.449Z,114.73
2022-11-18T11:22:17.774Z,118.07
2022-11-18T11:24:47.691Z,132.00
2022-11-18T11:30:29.260Z,120.97
2022-11-18T11:33:23.124Z,124.17
2022-11-18T11:36:10.691Z,108.97
2022-11-18T11:38:51.111Z,110.20
2022-11-18T11:41:24.636Z,117.93
2022-11-18T11:44:13.741Z,109.23
2022-11-18T11:47:08.808Z,115.40
2022-11-18T11:49:50.601Z,108.30
2022-11-18T11:52:26.464Z,114.70
2022-11-18T11:55:02.986Z,109.47
2022-11-18T11:57:43.903Z,109.37
2022-11-18T12:00:16.131Z,109.83
2022-11-18T12:02:58.790Z,110.97
2022-11-18T12:05:34.440Z,104.03
2022-11-18T12:08:05.428Z,103.77
2022-11-18T12:10:49.581Z,107.60
2022-11-18T12:13:34.298Z,94.73
2022-11-18T12:16:12.159Z,90.70
2022-11-18T12:18:44.972Z,97.67
2022-11-18T12:21:46.509Z,89.40
2022-11-18T12:24:33.340Z,93.73
2022-11-18T12:27:03.156Z,88.70
2022-11-18T12:29:40.978Z,81.77
2022-11-18T12:32:29.860Z,81.43
2022-11-18T12:35:02.735Z,75.23
2022-11-18T12:37:46.438Z,79.70
2022-11-18T12:40:34.424Z,81.77
2022-11-18T12:43:20.598Z,87.93
2022-11-18T12:45:55.863Z,86.07
2022-11-18T12:48:41.442Z,79.07
2022-11-18T12:51:47.971Z,88.80
2022-11-18T12:54:29.646Z,83.73
2022-11-18T12:57:01.060Z,82.47
2022-11-18T12:59:35.758Z,84.00
2022-11-18T13:02:16.798Z,90.47
2022-11-18T13:04:48.599Z,83.90
2022-11-18T13:07:37.798Z,85.63
2022-11-18T13:10:21.408Z,90.63
2022-11-18T13:12:50.368Z,86.17
2022-11-18T13:15:37.598Z,87.80
2022-11-18T13:18:16.605Z,86.97
2022-11-18T13:20:45.568Z,89.40
2022-11-18T13:23:46.975Z,91.93
2022-11-18T13:26:20.593Z,96.10
2022-11-18T13:29:16.993Z,90.77
2022-11-18T13:31:53.511Z,84.77
2022-11-18T13:34:26.102Z,81.07
2022-11-18T13:36:56.555Z,85.20
2022-11-18T13:39:26.530Z,84.50
2022-11-18T13:42:05.688Z,86.37
2022-11-18T13:44:35.105Z,94.03
2022-11-18T13:47:12.990Z,86.90
2022-11-18T13:49:55.608Z,92.03
2022-11-18T13:52:29.142Z,88.60
2022-11-18T13:55:00.288Z,90.93
2022-11-18T13:57:30.333Z,93.97
2022-11-18T14:00:20.819Z,97.53
2022-11-18T14:02:59.391Z,103.13
2022-11-18T14:05:29.390Z,108.27
2022-11-18T14:08:02.218Z,114.00
2022-11-18T14:10:40.148Z,121.97
2022-11-18T14:13:19.155Z,116.50
2022-11-18T14:15:47.713Z,113.47
2022-11-18T14:18:22.623Z,111.60
2022-11-18T14:20:56.170Z,129.10
2022-11-18T14:23:30.919Z,129.50
2022-11-18T14:26:00.672Z,138.27
2022-11-18T14:28:34.043Z,138.07
2022-11-18T14:31:05.146Z,148.50
2022-11-18T14:33:34.485Z,150.20
2022-11-18T14:36:10.826Z,148.97
2022-11-18T14:39:11.244Z,150.97
2022-11-18T14:41:50.909Z,150.07
2022-11-18T14:44:20.614Z,147.53
2022-11-18T14:46:52.433Z,148.93
2022-11-18T14:49:24.134Z,152.63
2022-11-18T14:51:54.797Z,163.60
2022-11-18T14:54:26.837Z,154.47
2022-11-18T14:56:58.475Z,153.10
2022-11-18T14:59:26.707Z,143.30
2022-11-18T15:01:55.121Z,134.47
2022-11-18T15:04:23.354Z,135.87
2022-11-18T15:06:51.364Z,132.83
2022-11-18T15:09:20.749Z,134.07
2022-11-18T15:11:48.822Z,121.47
2022-11-18T15:14:17.403Z,142.53
2022-11-18T15:16:45.627Z,128.00
2022-11-18T15:19:16.719Z,136.33
2022-11-18T15:21:45.615Z,133.13
2022-11-18T15:24:13.917Z,132.37
2022-11-18T15:26:45.467Z,119.47
2022-11-18T15:29:17.866Z,127.20
2022-11-18T15:31:46.069Z,129.40
2022-11-18T15:34:14.672Z,119.23
2022-11-18T15:36:42.958Z,115.83
2022-11-18T15:39:12.087Z,119.70
2022-11-18T15:41:41.698Z,121.33
2022-11-18T15:44:12.787Z,138.67
2022-11-18T15:46:40.913Z,113.80
2022-11-18T15:49:13.531Z,120.67
2022-11-18T15:51:42.195Z,126.80
2022-11-18T15:54:10.635Z,136.63
2022-11-18T15:56:39.954Z,135.37
2022-11-18T15:59:11.076Z,141.20
2022-11-18T16:01:43.022Z,125.53
2022-11-18T16:04:13.756Z,126.63
2022-11-18T16:06:43.527Z,140.53
2022-11-18T16:09:12.796Z,140.00
2022-11-18T16:11:58.529Z,119.97
2022-11-18T16:14:26.981Z,136.27
2022-11-18T16:16:57.991Z,120.83
2022-11-18T16:19:31.596Z,119.50
2022-11-18T16:21:59.687Z,122.03
2022-11-18T16:24:29.906Z,118.67
2022-11-18T16:26:58.624Z,129.03
2022-11-18T16:29:26.713Z,145.47
2022-11-18T16:31:56.320Z,134.27
2022-11-18T16:34:26.183Z,134.53
2022-11-18T16:36:55.431Z,127.10
2022-11-18T16:39:25.995Z,135.13
2022-11-18T16:41:55.619Z,130.20
2022-11-18T16:44:24.391Z,132.70
2022-11-18T16:46:54.088Z,137.13
2022-11-18T16:49:26.132Z,143.00
2022-11-18T16:51:56.143Z,139.47
2022-11-18T16:54:25.591Z,137.83
2022-11-18T16:56:55.006Z,122.33
2022-11-18T16:59:24.544Z,141.30
2022-11-18T17:01:54.000Z,132.43
2022-11-18T17:04:24.574Z,154.97
2022-11-18T17:06:53.184Z,157.93
2022-11-18T17:09:22.999Z,147.20
2022-11-18T17:11:52.612Z,145.90
2022-11-18T17:14:21.976Z,143.57
2022-11-18T17:16:51.235Z,148.27
2022-11-18T17:19:21.847Z,143.97
2022-11-18T17:21:52.604Z,137.10
2022-11-18T17:24:22.519Z,133.03
2022-11-18T17:26:52.252Z,126.63
2022-11-18T17:29:21.199Z,139.43
2022-11-18T17:31:49.948Z,116.30
2022-11-18T17:34:19.088Z,121.30
2022-11-18T17:36:47.383Z,126.73
2022-11-18T17:39:18.154Z,119.10
2022-11-18T17:42:03.874Z,118.30
2022-11-18T17:44:32.184Z,104.50
2022-11-18T17:47:00.218Z,99.17
2022-11-18T17:49:28.227Z,100.13
2022-11-18T17:51:56.370Z,104.07
2022-11-18T17:54:26.133Z,103.13
2022-11-18T17:56:54.299Z,109.03
2022-11-18T17:59:23.198Z,87.57
2022-11-18T18:01:57.553Z,89.93
2022-11-18T18:04:27.525Z,92.17
2022-11-18T18:06:55.897Z,89.47
2022-11-18T18:09:30.546Z,99.80
2022-11-18T18:11:58.960Z,97.10
2022-11-18T18:14:26.055Z,92.30
2022-11-18T18:16:55.462Z,94.43
2022-11-18T18:19:24.639Z,89.77
2022-11-18T18:21:53.530Z,93.23
2022-11-18T18:24:22.372Z,90.43
2022-11-18T18:26:52.377Z,84.93
2022-11-18T18:29:20.429Z,98.17
2022-11-18T18:31:48.442Z,92.37
2022-11-18T18:34:18.046Z,109.43
2022-11-18T18:36:46.281Z,94.13
2022-11-18T18:39:15.486Z,100.00
2022-11-18T18:41:43.701Z,99.00
2022-11-18T18:44:18.341Z,110.60
2022-11-18T18:46:46.038Z,110.10
2022-11-18T18:49:15.969Z,111.70
2022-11-18T18:51:45.879Z,97.90
2022-11-18T18:54:16.552Z,106.17
2022-11-18T18:56:46.768Z,108.07
2022-11-18T18:59:16.328Z,104.90
2022-11-18T19:01:45.367Z,111.63
2022-11-18T19:04:16.716Z,115.07
2022-11-18T19:06:59.994Z,110.03
2022-11-18T19:09:28.528Z,115.23
2022-11-18T19:12:13.946Z,117.73
2022-11-18T19:14:43.808Z,110.57
2022-11-18T19:17:13.197Z,111.30
2022-11-18T19:20:00.555Z,107.60
2022-11-18T19:22:30.561Z,112.60
2022-11-18T19:24:59.409Z,104.73
2022-11-18T19:27:27.799Z,106.07
2022-11-18T19:29:57.256Z,133.23
2022-11-18T19:32:25.484Z,144.70
2022-11-18T19:34:53.605Z,142.93
2022-11-18T19:37:21.770Z,136.60
2022-11-18T19:39:49.911Z,137.57
2022-11-18T19:42:17.965Z,146.00
2022-11-18T19:44:46.596Z,128.30
2022-11-18T19:47:16.278Z,147.17
2022-11-18T19:49:44.469Z,139.90
2022-11-18T19:52:12.891Z,149.93
2022-11-18T19:54:41.566Z,151.13
2022-11-18T19:57:10.344Z,142.93
2022-11-18T19:59:38.440Z,130.27
2022-11-18T20:02:07.529Z,134.67
2022-11-18T20:04:37.139Z,131.70
2022-11-18T20:07:05.716Z,126.77
2022-11-18T20:09:34.016Z,118.67
2022-11-18T20:12:02.174Z,124.90
2022-11-18T20:14:30.646Z,129.37
2022-11-18T20:16:58.807Z,126.37
2022-11-18T20:19:27.006Z,133.13
2022-11-18T20:21:56.743Z,132.30
2022-11-18T20:24:24.832Z,139.17
2022-11-18T20:26:52.903Z,132.67
2022-11-18T20:29:21.546Z,141.40
2022-11-18T20:31:51.408Z,125.23
2022-11-18T20:34:19.541Z,120.33
2022-11-18T20:36:51.838Z,121.13
2022-11-18T20:39:21.909Z,130.53
2022-11-18T20:42:06.501Z,127.20
2022-11-18T20:44:34.558Z,127.20
2022-11-18T20:47:02.594Z,126.43
2022-11-18T20:49:30.756Z,134.00
2022-11-18T20:51:58.832Z,121.60
2022-11-18T20:54:28.296Z,139.83
2022-11-18T20:56:56.365Z,132.23
2022-11-18T20:59:24.825Z,136.27
2022-11-18T21:01:53.038Z,127.77
2022-11-18T21:04:21.246Z,119.67
2022-11-18T21:06:49.331Z,127.37
2022-11-18T21:09:17.738Z,128.57
2022-11-18T21:11:47.357Z,118.20
2022-11-18T21:14:23.270Z,122.47
2022-11-18T21:16:52.873Z,120.60
2022-11-18T21:19:22.377Z,119.93
2022-11-18T21:21:52.718Z,112.07
2022-11-18T21:24:23.085Z,115.43
2022-11-18T21:26:55.735Z,116.63
2022-11-18T21:29:25.116Z,105.37
2022-11-18T21:31:54.470Z,118.63
2022-11-18T21:34:23.359Z,120.63
2022-11-18T21:36:54.655Z,118.10
2022-11-18T21:39:23.583Z,109.77
2022-11-18T21:41:57.638Z,102.57
2022-11-18T21:44:28.184Z,100.70
2022-11-18T21:46:56.999Z,119.87
2022-11-18T21:49:25.038Z,130.03
2022-11-18T21:51:53.175Z,99.13
2022-11-18T21:54:21.201Z,101.17
2022-11-18T21:56:49.401Z,105.83
2022-11-18T21:59:19.241Z,99.97
2022-11-18T22:01:47.535Z,99.90
2022-11-18T22:04:37.699Z,101.73
2022-11-18T22:07:06.445Z,102.30
2022-11-18T22:09:36.810Z,106.43
2022-11-18T22:12:07.937Z,105.53
2022-11-18T22:14:37.951Z,102.30
2022-11-18T22:17:06.325Z,98.37
2022-11-18T22:19:35.488Z,84.97
2022-11-18T22:22:03.627Z,96.07
2022-11-18T22:24:31.709Z,113.43
2022-11-18T22:26:59.806Z,115.27
2022-11-18T22:29:27.887Z,113.33
2022-11-18T22:31:57.709Z,126.90
2022-11-18T22:34:26.537Z,116.07
2022-11-18T22:36:54.580Z,123.70
2022-11-18T22:39:22.962Z,114.40
2022-11-18T22:42:08.790Z,116.80
2022-11-18T22:44:36.760Z,119.50
2022-11-18T22:47:06.825Z,122.73
2022-11-18T22:49:34.891Z,123.43
2022-11-18T22:52:03.013Z,133.20
2022-11-18T22:54:38.904Z,139.37
2022-11-18T22:57:07.976Z,125.40
2022-11-18T22:59:36.061Z,120.60
2022-11-18T23:02:06.209Z,117.57
2022-11-18T23:04:34.380Z,107.50
2022-11-18T23:07:02.683Z,125.80
2022-11-18T23:09:30.760Z,117.60
2022-11-18T23:12:16.176Z,126.60
2022-11-18T23:14:44.337Z,106.40
2022-11-18T23:17:13.958Z,104.27
2022-11-18T23:19:43.932Z,114.57
2022-11-18T23:22:12.354Z,115.47
2022-11-18T23:24:40.476Z,112.43
2022-11-18T23:27:08.562Z,121.23
2022-11-18T23:29:36.729Z,129.17
2022-11-18T23:32:05.071Z,114.67
2022-11-18T23:34:34.579Z,125.57
2022-11-18T23:37:02.865Z,125.40
2022-11-18T23:39:30.972Z,125.57
2022-11-18T23:41:59.171Z,127.43
2022-11-18T23:44:41.051Z,127.00
2022-11-18T23:47:09.735Z,129.60
2022-11-18T23:49:39.141Z,146.83
2022-11-18T23:52:07.275Z,146.80
2022-11-18T23:54:35.447Z,146.27
2022-11-18T23:57:05.469Z,147.47
2022-11-18T23:59:33.862Z,152.70
